Time;durP1;ratioP1;P1;durP2;ratioP2;P2;SDS_P1;SDS_P2;PMS_P1;PMS_P2;Temp;Humidity;BMP_temperature;BMP_pressure;BME280_temperature;BME280_humidity;BME280_pressure;Samples;Min_cycle;Max_cycle;Signal;HPM_P1;HPM_P2
2022/01/17 00:00:13;;;;;;;;;;;;;;;6.70;50.54;100506.19;4431975;32;19997;-74
2022/01/17 00:02:44;;;;;;;;;;;;;;;7.06;49.82;100506.00;4431339;32;19981;-74
2022/01/17 00:05:11;;;;;;;;;;;;;;;6.83;50.32;100495.63;4432006;32;19981;-74
2022/01/17 00:07:38;;;;;;;;;;;;;;;6.76;50.48;100488.44;4431997;32;19978;-75
2022/01/17 00:10:05;;;;;;;;;;;;;;;6.84;50.47;100489.66;4431889;32;19986;-75
2022/01/17 00:12:35;;;;;;;;;;;;;;;6.40;51.82;100485.22;4431696;32;19994;-73
2022/01/17 00:15:09;;;;;;;;;;;;;;;6.85;50.62;100480.25;4431193;32;19985;-73
2022/01/17 00:17:40;;;;;;;;;;;;;;;6.67;51.13;100485.53;4418448;32;19981;-74
2022/01/17 00:20:10;;;;;;;;;;;;;;;6.77;50.98;100490.22;4432064;32;20053;-74
2022/01/17 00:22:39;;;;;;;;;;;;;;;6.48;51.75;100479.59;4431761;32;20046;-74
2022/01/17 00:25:08;;;;;;;;;;;;;;;6.43;51.96;100495.63;4406797;32;20002;-74
2022/01/17 00:27:35;;;;;;;;;;;;;;;6.47;51.91;100488.09;4411131;32;20402;-74
2022/01/17 00:30:03;;;;;;;;;;;;;;;6.14;53.19;100491.78;4419510;32;20016;-74
2022/01/17 00:32:31;;;;;;;;;;;;;;;6.48;51.96;100489.88;4414694;32;19981;-74
2022/01/17 00:34:57;;;;;;;;;;;;;;;6.11;53.06;100491.66;4415904;32;19990;-74
2022/01/17 00:37:24;;;;;;;;;;;;;;;6.40;52.37;100480.94;4416259;32;19982;-74
2022/01/17 00:39:51;;;;;;;;;;;;;;;6.78;51.26;100484.25;4416371;32;20032;-74
2022/01/17 00:42:18;;;;;;;;;;;;;;;6.58;51.78;100487.69;4420010;32;19997;-74
2022/01/17 00:44:47;;;;;;;;;;;;;;;6.33;52.58;100489.22;4416326;32;20343;-74
2022/01/17 00:47:14;;;;;;;;;;;;;;;6.44;52.26;100492.22;4416162;32;20008;-74
2022/01/17 00:49:41;;;;;;;;;;;;;;;6.68;51.69;100492.41;4415230;32;20050;-74
2022/01/17 00:52:08;;;;;;;;;;;;;;;6.66;51.80;100494.03;4415634;32;19990;-75
2022/01/17 00:54:35;;;;;;;;;;;;;;;6.83;51.18;100497.31;4416752;32;19974;-74
2022/01/17 00:57:02;;;;;;;;;;;;;;;6.75;51.40;100494.44;4416042;32;20301;-74
2022/01/17 00:59:30;;;;;;;;;;;;;;;6.67;51.60;100504.41;4416718;32;20026;-74
2022/01/17 01:01:57;;;;;;;;;;;;;;;6.68;51.44;100497.56;4416300;32;20634;-75
2022/01/17 01:04:24;;;;;;;;;;;;;;;6.81;51.06;100499.81;4414896;32;20484;-75
2022/01/17 01:06:51;;;;;;;;;;;;;;;6.25;52.36;100505.97;4419821;32;20763;-74
2022/01/17 01:09:18;;;;;;;;;;;;;;;6.96;50.55;100490.19;4413028;32;19993;-74
2022/01/17 01:11:45;;;;;;;;;;;;;;;6.93;50.66;100484.91;4414363;32;19977;-75
2022/01/17 01:14:12;;;;;;;;;;;;;;;6.70;51.45;100485.63;4415108;32;20314;-74
2022/01/17 01:16:38;;;;;;;;;;;;;;;6.86;50.86;100482.91;4416017;32;19982;-74
2022/01/17 01:19:19;;;;;;;;;;;;;;;6.60;51.28;100473.19;4414581;32;19994;-74
2022/01/17 01:21:59;;;;;;;;;;;;;;;6.57;51.55;100467.91;4416255;32;20291;-75
2022/01/17 01:28:13;;;;;;;;;;;;;;;6.69;51.09;100468.44;4399313;32;19992;-74
2022/01/17 01:30:11;;;;;;;;;;;;;;;6.64;51.17;100459.66;4391196;32;19990;-74
2022/01/17 01:32:49;;;;;;;;;;;;;;;6.28;52.28;100462.41;4398943;32;20049;-75
2022/01/17 01:35:20;;;;;;;;;;;;;;;6.43;51.88;100455.38;4400552;32;20783;-74
2022/01/17 01:37:48;;;;;;;;;;;;;;;6.79;50.88;100455.13;4400685;32;19979;-74
2022/01/17 01:40:16;;;;;;;;;;;;;;;6.84;50.48;100448.50;4399533;32;20004;-74
2022/01/17 01:42:43;;;;;;;;;;;;;;;6.77;50.62;100451.63;4400515;32;19994;-74
2022/01/17 01:45:12;;;;;;;;;;;;;;;6.57;51.34;100447.34;4400725;32;20389;-74
2022/01/17 01:47:39;;;;;;;;;;;;;;;6.89;49.96;100447.00;4386901;32;19978;-73
2022/01/17 01:50:07;;;;;;;;;;;;;;;6.55;51.31;100455.00;4399481;32;20028;-73
2022/01/17 01:52:34;;;;;;;;;;;;;;;6.86;50.40;100454.59;4399552;32;20386;-74
2022/01/17 01:55:00;;;;;;;;;;;;;;;7.04;49.58;100445.84;4399005;32;20457;-75
2022/01/17 01:57:27;;;;;;;;;;;;;;;6.93;49.87;100448.88;4404217;32;20046;-74
2022/01/17 01:59:54;;;;;;;;;;;;;;;7.28;48.79;100445.94;4417002;32;19977;-75
2022/01/17 02:02:21;;;;;;;;;;;;;;;7.02;49.36;100447.47;4429592;32;20024;-75
2022/01/17 02:04:49;;;;;;;;;;;;;;;6.70;50.39;100454.75;4431135;32;20826;-75
2022/01/17 02:07:16;;;;;;;;;;;;;;;6.78;50.06;100453.38;4430658;32;20023;-75
2022/01/17 02:09:43;;;;;;;;;;;;;;;6.95;49.77;100465.22;4431538;32;19994;-74
2022/01/17 02:12:10;;;;;;;;;;;;;;;6.86;49.69;100467.47;4430455;32;20039;-74
2022/01/17 02:14:37;;;;;;;;;;;;;;;6.98;49.77;100460.22;4431146;32;19981;-74
2022/01/17 02:17:04;;;;;;;;;;;;;;;7.11;49.71;100459.00;4430651;32;20018;-74
2022/01/17 02:19:33;;;;;;;;;;;;;;;7.08;49.68;100458.00;4418522;32;20005;-75
2022/01/17 02:22:01;;;;;;;;;;;;;;;6.66;51.00;100447.72;4430866;32;20357;-75
2022/01/17 02:24:28;;;;;;;;;;;;;;;6.74;50.97;100457.53;4431080;32;19981;-75
2022/01/17 02:26:55;;;;;;;;;;;;;;;6.79;50.98;100439.69;4430380;32;20657;-74
2022/01/17 02:29:21;;;;;;;;;;;;;;;6.70;51.09;100454.75;4430499;32;19989;-75
2022/01/17 02:31:48;;;;;;;;;;;;;;;6.56;51.56;100455.88;4430680;32;19981;-75
2022/01/17 02:34:15;;;;;;;;;;;;;;;6.54;51.42;100445.56;4430726;32;20068;-75
2022/01/17 02:36:43;;;;;;;;;;;;;;;6.45;51.70;100447.72;4418339;32;20033;-75
2022/01/17 02:39:10;;;;;;;;;;;;;;;6.91;50.66;100429.91;4430549;32;19981;-75
2022/01/17 02:41:39;;;;;;;;;;;;;;;6.81;50.64;100427.78;4415092;32;21042;-75
2022/01/17 02:44:06;;;;;;;;;;;;;;;6.65;51.27;100430.53;4417165;32;19993;-75
2022/01/17 02:46:33;;;;;;;;;;;;;;;6.21;52.61;100421.84;4430495;32;19977;-74
2022/01/17 02:49:01;;;;;;;;;;;;;;;6.63;51.26;100421.88;4416271;32;20008;-75
2022/01/17 02:51:28;;;;;;;;;;;;;;;6.59;51.16;100431.16;4408025;32;20064;-74
2022/01/17 02:53:55;;;;;;;;;;;;;;;6.78;50.71;100413.91;4417025;32;20023;-74
2022/01/17 02:56:22;;;;;;;;;;;;;;;6.51;51.61;100412.00;4416882;32;19970;-75
2022/01/17 02:58:49;;;;;;;;;;;;;;;6.67;50.60;100400.63;4430950;32;20012;-75
2022/01/17 03:01:17;;;;;;;;;;;;;;;6.45;51.47;100402.31;4416067;32;19989;-75
2022/01/17 03:03:46;;;;;;;;;;;;;;;6.49;51.25;100393.91;4418521;32;20034;-75
2022/01/17 03:06:13;;;;;;;;;;;;;;;6.30;51.78;100386.25;4416269;32;20027;-75
2022/01/17 03:08:40;;;;;;;;;;;;;;;6.45;51.24;100381.75;4430035;32;19986;-75
2022/01/17 03:11:09;;;;;;;;;;;;;;;6.46;51.22;100380.91;4430492;32;20005;-75
2022/01/17 03:13:37;;;;;;;;;;;;;;;6.39;51.46;100371.19;4429663;32;19989;-75
2022/01/17 03:16:07;;;;;;;;;;;;;;;6.58;50.63;100371.97;4430441;32;19981;-74
2022/01/17 03:18:42;;;;;;;;;;;;;;;6.41;51.24;100374.69;4407532;32;20357;-75
2022/01/17 03:21:09;;;;;;;;;;;;;;;6.71;50.49;100379.34;4416008;32;19989;-74
2022/01/17 03:23:36;;;;;;;;;;;;;;;6.86;49.82;100364.53;4416183;32;20400;-74
2022/01/17 03:26:03;;;;;;;;;;;;;;;6.50;51.00;100375.06;4429553;32;20599;-74
2022/01/17 03:28:30;;;;;;;;;;;;;;;6.65;50.31;100373.97;4417160;32;20476;-74
2022/01/17 03:30:57;;;;;;;;;;;;;;;6.52;50.94;100373.47;4429171;32;19993;-74
2022/01/17 03:33:24;;;;;;;;;;;;;;;6.57;50.71;100378.78;4430080;32;19992;-75
2022/01/17 03:35:52;;;;;;;;;;;;;;;7.02;49.19;100393.41;4419703;32;19996;-75
2022/01/17 03:38:19;;;;;;;;;;;;;;;6.75;50.11;100391.50;4430013;32;19982;-74
2022/01/17 03:40:47;;;;;;;;;;;;;;;7.11;48.80;100397.22;4429766;32;20278;-75
2022/01/17 03:43:14;;;;;;;;;;;;;;;6.85;49.76;100408.19;4430305;32;20027;-75
2022/01/17 03:45:41;;;;;;;;;;;;;;;6.44;50.72;100415.97;4429405;32;19977;-74
2022/01/17 03:48:08;;;;;;;;;;;;;;;7.25;48.63;100415.81;4425601;32;20003;-75
2022/01/17 03:50:35;;;;;;;;;;;;;;;7.22;48.64;100421.69;4404461;32;20048;-75
2022/01/17 03:53:02;;;;;;;;;;;;;;;7.41;48.12;100423.28;4405491;32;20037;-74
2022/01/17 03:55:32;;;;;;;;;;;;;;;7.37;48.08;100411.13;4417201;32;20157;-75
2022/01/17 03:57:59;;;;;;;;;;;;;;;7.16;48.76;100415.44;4416060;32;20020;-76
2022/01/17 04:00:28;;;;;;;;;;;;;;;7.15;48.75;100412.00;4404230;32;20011;-75
2022/01/17 04:02:55;;;;;;;;;;;;;;;7.45;47.95;100425.16;4416025;32;19993;-75
2022/01/17 04:05:22;;;;;;;;;;;;;;;7.35;48.58;100428.19;4416712;32;20046;-75
2022/01/17 04:07:49;;;;;;;;;;;;;;;7.34;48.56;100426.47;4416594;32;19994;-75
2022/01/17 04:10:16;;;;;;;;;;;;;;;7.52;48.01;100425.38;4403664;32;20035;-75
2022/01/17 04:12:43;;;;;;;;;;;;;;;7.14;49.15;100422.22;4431981;32;20027;-75
2022/01/17 04:15:11;;;;;;;;;;;;;;;7.63;47.93;100416.37;4417909;32;19986;-75
2022/01/17 04:17:40;;;;;;;;;;;;;;;7.59;48.01;100422.22;4431761;32;20005;-75
2022/01/17 04:20:09;;;;;;;;;;;;;;;7.02;49.75;100419.16;4426864;32;20038;-75
2022/01/17 04:22:40;;;;;;;;;;;;;;;7.23;49.18;100432.88;4417872;32;20366;-75
2022/01/17 04:25:07;;;;;;;;;;;;;;;7.50;48.59;100437.31;4430722;32;19970;-75
2022/01/17 04:27:34;;;;;;;;;;;;;;;7.56;48.16;100432.41;4417849;32;19985;-75
2022/01/17 04:30:01;;;;;;;;;;;;;;;6.89;49.97;100438.38;4414282;32;20023;-74
2022/01/17 04:32:28;;;;;;;;;;;;;;;7.20;49.45;100433.63;4405922;32;19978;-75
2022/01/17 04:34:55;;;;;;;;;;;;;;;6.76;50.23;100449.84;4423250;32;20008;-75
2022/01/17 04:37:22;;;;;;;;;;;;;;;7.19;49.49;100451.59;4431675;32;20669;-75
2022/01/17 04:39:50;;;;;;;;;;;;;;;7.19;49.41;100437.03;4419340;32;20023;-74
2022/01/17 04:42:24;;;;;;;;;;;;;;;7.32;49.08;100438.38;4431618;32;20038;-75
2022/01/17 04:47:41;;;;;;;;;;;;;;;7.55;48.62;100422.94;4431993;32;19994;-76
2022/01/17 04:50:16;;;;;;;;;;;;;;;7.53;48.64;100421.97;4417592;32;20076;-75
2022/01/17 04:52:43;;;;;;;;;;;;;;;7.54;48.62;100413.44;4415003;32;20359;-76
2022/01/17 04:55:11;;;;;;;;;;;;;;;7.57;48.31;100419.59;4423306;32;20020;-74
2022/01/17 04:57:38;;;;;;;;;;;;;;;7.62;48.35;100418.03;4417762;32;20842;-75
2022/01/17 05:00:05;;;;;;;;;;;;;;;7.65;48.39;100405.28;4431599;32;20027;-74
2022/01/17 05:02:32;;;;;;;;;;;;;;;7.70;48.13;100402.87;4431249;32;19999;-75
2022/01/17 05:04:59;;;;;;;;;;;;;;;7.84;47.74;100391.38;4430739;32;20001;-75
2022/01/17 05:07:26;;;;;;;;;;;;;;;7.08;49.83;100391.06;4430975;32;20035;-75
2022/01/17 05:09:53;;;;;;;;;;;;;;;7.56;48.65;100411.78;4431703;32;19989;-76
2022/01/17 05:12:20;;;;;;;;;;;;;;;7.71;48.18;100407.22;4431098;32;19985;-75
2022/01/17 05:14:50;;;;;;;;;;;;;;;7.79;47.50;100405.81;4431057;32;19989;-75
2022/01/17 05:20:00;;;;;;;;;;;;;;;7.90;47.43;100409.63;4418204;32;19981;-75
2022/01/17 05:22:31;;;;;;;;;;;;;;;7.68;48.06;100407.09;4431414;32;19989;-75
2022/01/17 05:24:59;;;;;;;;;;;;;;;7.39;48.80;100417.19;4417679;32;19973;-74
2022/01/17 05:27:25;;;;;;;;;;;;;;;7.21;49.41;100419.06;4409400;32;20034;-75
2022/01/17 05:29:53;;;;;;;;;;;;;;;7.56;48.47;100425.56;4426402;32;20003;-75
2022/01/17 05:32:20;;;;;;;;;;;;;;;7.29;49.14;100422.81;4427875;32;20009;-73
2022/01/17 05:34:48;;;;;;;;;;;;;;;7.66;48.26;100408.75;4428908;32;20056;-73
2022/01/17 05:37:15;;;;;;;;;;;;;;;7.71;48.26;100408.91;4429835;32;20003;-73
2022/01/17 05:39:45;;;;;;;;;;;;;;;7.88;47.67;100400.97;4429998;32;19997;-71
2022/01/17 05:42:17;;;;;;;;;;;;;;;7.76;47.92;100392.81;4429356;32;19999;-71
2022/01/17 05:44:46;;;;;;;;;;;;;;;7.28;49.52;100387.59;4429724;32;20399;-72
2022/01/17 05:47:13;;;;;;;;;;;;;;;7.49;48.90;100374.62;4430095;32;19986;-72
2022/01/17 05:49:40;;;;;;;;;;;;;;;7.64;48.46;100384.62;4415833;32;19999;-71
2022/01/17 05:52:07;;;;;;;;;;;;;;;7.28;49.52;100379.00;4408917;32;20563;-72
2022/01/17 05:54:34;;;;;;;;;;;;;;;7.33;49.62;100377.44;4427241;32;20315;-72
2022/01/17 05:57:00;;;;;;;;;;;;;;;7.28;49.73;100374.72;4415859;32;19993;-73
2022/01/17 05:59:28;;;;;;;;;;;;;;;7.21;49.60;100372.72;4429306;32;19993;-71
2022/01/17 06:01:54;;;;;;;;;;;;;;;7.06;50.16;100370.44;4419148;32;19990;-74
2022/01/17 06:04:21;;;;;;;;;;;;;;;7.42;49.08;100370.06;4429751;32;20482;-71
2022/01/17 06:06:48;;;;;;;;;;;;;;;7.36;49.20;100363.00;4429242;32;20035;-73
2022/01/17 06:09:15;;;;;;;;;;;;;;;6.78;50.68;100370.19;4429564;32;19986;-72
2022/01/17 06:11:42;;;;;;;;;;;;;;;7.07;49.87;100363.59;4395561;32;19986;-74
2022/01/17 06:14:10;;;;;;;;;;;;;;;7.03;49.97;100366.88;4406419;32;19985;-72
2022/01/17 06:16:37;;;;;;;;;;;;;;;7.43;49.08;100370.16;4415581;32;20423;-73
2022/01/17 06:19:07;;;;;;;;;;;;;;;7.06;49.76;100372.16;4430113;32;19989;-76
2022/01/17 06:21:34;;;;;;;;;;;;;;;7.63;48.47;100373.44;4415702;32;20004;-73
2022/01/17 06:24:02;;;;;;;;;;;;;;;7.60;48.51;100372.47;4430360;32;19973;-73
2022/01/17 06:26:29;;;;;;;;;;;;;;;7.08;49.86;100385.94;4429937;32;20053;-72
2022/01/17 06:28:56;;;;;;;;;;;;;;;7.13;49.63;100368.97;4416700;32;19981;-72
2022/01/17 06:31:28;;;;;;;;;;;;;;;7.21;49.56;100378.75;4427476;32;20701;-75
2022/01/17 06:33:55;;;;;;;;;;;;;;;7.40;48.88;100380.34;4412758;32;19981;-72
2022/01/17 06:36:22;;;;;;;;;;;;;;;7.43;48.83;100377.88;4425520;32;20016;-73
2022/01/17 06:38:49;;;;;;;;;;;;;;;7.37;49.36;100369.91;4428843;32;20034;-72
2022/01/17 06:41:17;;;;;;;;;;;;;;;7.55;48.83;100368.81;4428995;32;20538;-73
2022/01/17 06:43:45;;;;;;;;;;;;;;;7.63;48.36;100358.00;4402824;32;20034;-73
2022/01/17 06:46:11;;;;;;;;;;;;;;;7.44;48.61;100356.44;4416363;32;20123;-73
2022/01/17 06:48:38;;;;;;;;;;;;;;;7.48;48.67;100346.25;4415759;32;19992;-73
2022/01/17 06:51:05;;;;;;;;;;;;;;;7.48;48.53;100341.09;4430257;32;20030;-72
2022/01/17 06:53:32;;;;;;;;;;;;;;;7.34;49.17;100344.06;4415674;32;20361;-72
2022/01/17 06:56:00;;;;;;;;;;;;;;;7.68;48.08;100355.56;4420924;32;20016;-73
2022/01/17 06:58:27;;;;;;;;;;;;;;;7.61;48.31;100367.34;4415921;32;19988;-72
2022/01/17 07:00:54;;;;;;;;;;;;;;;7.62;48.33;100355.34;4415982;32;20360;-73
2022/01/17 07:03:21;;;;;;;;;;;;;;;7.55;48.67;100343.06;4430317;32;19982;-73
2022/01/17 07:05:48;;;;;;;;;;;;;;;7.11;49.86;100350.88;4426167;32;20057;-71
2022/01/17 07:08:15;;;;;;;;;;;;;;;7.27;49.50;100346.31;4430600;32;19992;-71
2022/01/17 07:10:42;;;;;;;;;;;;;;;7.50;49.04;100342.91;4442802;32;20053;-72
2022/01/17 07:13:10;;;;;;;;;;;;;;;7.69;48.57;100334.16;4429763;32;19978;-74
2022/01/17 07:15:37;;;;;;;;;;;;;;;7.48;49.01;100323.06;4429061;32;19986;-72
2022/01/17 07:18:04;;;;;;;;;;;;;;;7.49;48.90;100319.66;4429213;32;20118;-72
2022/01/17 07:20:30;;;;;;;;;;;;;;;7.24;49.81;100331.63;4417342;32;20031;-72
2022/01/17 07:22:57;;;;;;;;;;;;;;;7.64;48.94;100327.94;4429884;32;20368;-72
2022/01/17 07:25:24;;;;;;;;;;;;;;;7.71;48.73;100319.59;4429464;32;20000;-73
2022/01/17 07:27:51;;;;;;;;;;;;;;;7.06;50.16;100325.81;4424927;32;19982;-72
2022/01/17 07:30:18;;;;;;;;;;;;;;;7.64;49.23;100343.41;4430123;32;20456;-73
2022/01/17 07:32:45;;;;;;;;;;;;;;;7.33;49.53;100357.72;4431353;32;20285;-73
2022/01/17 07:35:12;;;;;;;;;;;;;;;7.11;50.51;100366.31;4431321;32;20036;-71
2022/01/17 07:37:38;;;;;;;;;;;;;;;7.55;49.25;100373.97;4431400;32;20041;-73
2022/01/17 07:40:06;;;;;;;;;;;;;;;7.54;49.32;100383.41;4431918;32;19995;-72
2022/01/17 07:42:33;;;;;;;;;;;;;;;6.98;50.85;100401.00;4428552;32;19986;-72
2022/01/17 07:45:09;;;;;;;;;;;;;;;7.04;50.80;100436.41;4425086;32;19998;-72
2022/01/17 07:48:43;;;;;;;;;;;;;;;7.20;50.35;100448.19;4404239;32;19994;-72
2022/01/17 07:50:26;;;;;;;;;;;;;;;7.57;49.53;100449.63;4410207;32;20749;-71
2022/01/17 07:52:53;;;;;;;;;;;;;;;7.55;49.78;100434.09;4402030;32;20320;-72
2022/01/17 07:55:20;;;;;;;;;;;;;;;7.31;50.06;100408.31;4416399;32;20015;-72
2022/01/17 07:57:47;;;;;;;;;;;;;;;7.04;51.15;100389.22;4401154;32;19985;-71
2022/01/17 08:00:16;;;;;;;;;;;;;;;6.81;51.75;100381.47;4418402;32;20080;-83
2022/01/17 08:02:44;;;;;;;;;;;;;;;7.14;51.18;100370.72;4417599;32;20341;-71
2022/01/17 08:05:14;;;;;;;;;;;;;;;6.99;51.28;100365.87;4414080;32;19985;-71
2022/01/17 08:07:42;;;;;;;;;;;;;;;7.18;51.09;100375.19;4431855;32;20020;-72
2022/01/17 08:10:12;;;;;;;;;;;;;;;7.50;50.17;100375.50;4431085;32;19990;-72
2022/01/17 08:12:40;;;;;;;;;;;;;;;7.64;49.91;100369.16;4404767;32;19973;-72
2022/01/17 08:15:07;;;;;;;;;;;;;;;7.38;50.28;100355.34;4417729;32;20359;-72
2022/01/17 08:17:34;;;;;;;;;;;;;;;7.58;49.84;100343.19;4431794;32;20001;-72
2022/01/17 08:20:01;;;;;;;;;;;;;;;7.25;51.03;100341.13;4409813;32;20382;-72
2022/01/17 08:22:28;;;;;;;;;;;;;;;6.72;52.55;100324.50;4433073;32;20005;-72
2022/01/17 08:24:54;;;;;;;;;;;;;;;7.09;51.60;100310.47;4431918;32;19993;-72
2022/01/17 08:27:21;;;;;;;;;;;;;;;6.65;53.04;100312.22;4409145;32;19985;-83
2022/01/17 08:29:49;;;;;;;;;;;;;;;7.32;51.36;100319.06;4430094;32;20355;-77
2022/01/17 08:32:36;;;;;;;;;;;;;;;7.14;51.84;100307.25;4425384;32;19982;-71
2022/01/17 08:35:03;;;;;;;;;;;;;;;7.02;52.20;100313.62;4430549;32;20051;-72
2022/01/17 08:37:30;;;;;;;;;;;;;;;7.64;50.49;100309.91;4416840;32;19989;-72
2022/01/17 08:39:59;;;;;;;;;;;;;;;7.45;50.61;100311.81;4403780;32;19981;-72
2022/01/17 08:42:26;;;;;;;;;;;;;;;7.20;51.60;100314.31;4429639;32;20049;-73
2022/01/17 08:44:56;;;;;;;;;;;;;;;7.67;50.36;100348.66;4417526;32;20001;-78
2022/01/17 08:47:23;;;;;;;;;;;;;;;7.01;51.88;100358.22;4419235;32;20056;-72
2022/01/17 08:49:51;;;;;;;;;;;;;;;7.23;51.65;100365.94;4417132;32;19981;-72
2022/01/17 08:52:18;;;;;;;;;;;;;;;8.01;49.36;100370.47;4429721;32;20041;-72
2022/01/17 08:54:46;;;;;;;;;;;;;;;7.56;50.76;100370.56;4401940;32;19979;-72
2022/01/17 08:57:14;;;;;;;;;;;;;;;7.76;49.82;100337.81;4416040;32;19994;-72
2022/01/17 08:59:42;;;;;;;;;;;;;;;8.05;49.21;100346.56;4394825;32;20087;-72
2022/01/17 09:02:09;;;;;;;;;;;;;;;7.55;50.93;100322.47;4415612;32;19978;-77
2022/01/17 09:04:40;;;;;;;;;;;;;;;7.70;50.55;100286.94;4414781;32;20012;-72
2022/01/17 09:07:08;;;;;;;;;;;;;;;7.44;51.54;100304.94;4415924;32;19998;-75
2022/01/17 09:09:36;;;;;;;;;;;;;;;7.34;52.48;100313.16;4423084;32;19989;-73
2022/01/17 09:12:03;;;;;;;;;;;;;;;7.48;51.99;100317.91;4431045;32;20000;-72
2022/01/17 09:14:30;;;;;;;;;;;;;;;7.27;52.52;100290.53;4417899;32;20012;-72
2022/01/17 09:16:57;;;;;;;;;;;;;;;7.49;52.07;100281.91;4431429;32;19997;-72
2022/01/17 09:19:24;;;;;;;;;;;;;;;7.11;52.42;100283.09;4431107;32;20341;-72
2022/01/17 09:21:50;;;;;;;;;;;;;;;7.42;51.81;100296.25;4430840;32;19997;-72
2022/01/17 09:24:17;;;;;;;;;;;;;;;7.31;51.89;100297.59;4430885;32;20008;-74
2022/01/17 09:26:44;;;;;;;;;;;;;;;7.16;52.30;100297.87;4431477;32;20416;-73
2022/01/17 09:29:12;;;;;;;;;;;;;;;6.99;52.46;100284.41;4422170;32;20004;-73
2022/01/17 09:31:44;;;;;;;;;;;;;;;7.40;51.49;100281.56;4431654;32;19969;-73
2022/01/17 09:34:11;;;;;;;;;;;;;;;7.21;51.86;100280.03;4415678;32;20028;-73
2022/01/17 09:36:38;;;;;;;;;;;;;;;7.52;50.90;100268.25;4415935;32;20024;-72
2022/01/17 09:39:06;;;;;;;;;;;;;;;7.07;52.17;100265.78;4416050;32;20057;-73
2022/01/17 09:41:32;;;;;;;;;;;;;;;7.24;51.85;100254.37;4429962;32;19995;-72
2022/01/17 09:43:59;;;;;;;;;;;;;;;7.31;51.63;100256.38;4417593;32;20012;-73
2022/01/17 09:46:32;;;;;;;;;;;;;;;7.43;51.35;100256.81;4417579;32;20341;-72
2022/01/17 09:49:12;;;;;;;;;;;;;;;7.35;51.46;100240.22;4428108;32;20472;-75
2022/01/17 09:52:03;;;;;;;;;;;;;;;7.06;52.24;100223.72;4417899;32;20036;-74
2022/01/17 09:54:30;;;;;;;;;;;;;;;7.37;51.54;100220.56;4419238;32;19993;-74
2022/01/17 09:56:58;;;;;;;;;;;;;;;7.35;51.14;100211.88;4414504;32;20003;-73
2022/01/17 09:59:26;;;;;;;;;;;;;;;7.52;50.56;100203.84;4416915;32;19997;-73
2022/01/17 10:01:52;;;;;;;;;;;;;;;7.57;50.69;100218.66;4431102;32;20038;-73
2022/01/17 10:04:20;;;;;;;;;;;;;;;7.87;49.73;100200.75;4431231;32;20061;-72
2022/01/17 10:06:53;;;;;;;;;;;;;;;7.63;50.45;100212.84;4414425;32;19994;-75
2022/01/17 10:09:21;;;;;;;;;;;;;;;7.67;50.15;100206.97;4415579;32;20002;-78
2022/01/17 10:12:21;;;;;;;;;;;;;;;6.92;52.19;100200.06;4401452;32;20040;-72
2022/01/17 10:15:01;;;;;;;;;;;;;;;6.92;52.50;100205.22;4360745;32;20004;-73
2022/01/17 10:17:45;;;;;;;;;;;;;;;7.41;51.29;100206.06;4415147;32;20009;-72
2022/01/17 10:20:15;;;;;;;;;;;;;;;7.39;51.06;100212.88;4402142;32;19986;-72
2022/01/17 10:22:53;;;;;;;;;;;;;;;7.74;50.03;100193.44;4415500;32;19982;-73
2022/01/17 10:35:18;;;;;;;;;;;;;;;7.91;49.41;100174.28;4430471;32;20476;-72
2022/01/17 10:37:59;;;;;;;;;;;;;;;8.03;49.24;100155.72;4431337;32;20354;-72
2022/01/17 10:40:34;;;;;;;;;;;;;;;8.33;48.37;100158.38;4430395;32;20400;-73
2022/01/17 10:43:02;;;;;;;;;;;;;;;8.06;49.06;100162.69;4418736;32;19990;-74
2022/01/17 10:45:33;;;;;;;;;;;;;;;7.59;50.51;100159.44;4402800;32;20005;-73
2022/01/17 10:48:01;;;;;;;;;;;;;;;7.80;50.13;100139.53;4413105;32;19985;-73
2022/01/17 10:50:29;;;;;;;;;;;;;;;8.25;49.19;100131.47;4417969;32;20637;-73
2022/01/17 10:52:57;;;;;;;;;;;;;;;7.45;51.26;100131.53;4400955;32;19974;-74
2022/01/17 10:55:35;;;;;;;;;;;;;;;7.89;50.27;100144.12;4400663;32;20298;-75
2022/01/17 10:58:03;;;;;;;;;;;;;;;8.10;49.82;100144.78;4413870;32;20005;-75
2022/01/17 11:00:34;;;;;;;;;;;;;;;8.41;49.48;100119.06;4414853;32;20425;-73
2022/01/17 11:03:06;;;;;;;;;;;;;;;8.03;50.67;100106.75;4413555;32;20000;-74
2022/01/17 11:05:34;;;;;;;;;;;;;;;8.22;49.80;100118.47;4409965;32;19994;-73
2022/01/17 11:08:02;;;;;;;;;;;;;;;8.02;50.26;100094.69;4414551;32;19978;-72
2022/01/17 11:10:33;;;;;;;;;;;;;;;8.26;49.72;100089.38;4413778;32;19981;-73
2022/01/17 11:13:04;;;;;;;;;;;;;;;8.27;49.62;100098.00;4414359;32;19996;-72
2022/01/17 11:15:32;;;;;;;;;;;;;;;8.30;49.41;100088.66;4414853;32;20005;-72
2022/01/17 11:18:04;;;;;;;;;;;;;;;8.12;50.13;100062.31;4414471;32;20008;-75
2022/01/17 11:20:32;;;;;;;;;;;;;;;8.38;49.49;100074.28;4409287;32;19995;-71
2022/01/17 11:22:59;;;;;;;;;;;;;;;8.54;48.75;100074.72;4425421;32;19989;-73
2022/01/17 11:25:31;;;;;;;;;;;;;;;8.31;49.22;100050.84;4399497;32;19990;-71
2022/01/17 11:27:58;;;;;;;;;;;;;;;8.29;49.30;100043.03;4429888;32;19974;-71
2022/01/17 11:30:25;;;;;;;;;;;;;;;8.27;49.56;100044.72;4424603;32;20517;-72
2022/01/17 11:32:54;;;;;;;;;;;;;;;8.42;48.92;100038.25;4428053;32;20011;-73
2022/01/17 11:35:22;;;;;;;;;;;;;;;8.68;48.22;100037.28;4426660;32;19997;-73
2022/01/17 11:37:50;;;;;;;;;;;;;;;8.57;48.79;100043.84;4429932;32;20323;-74
2022/01/17 11:40:21;;;;;;;;;;;;;;;8.47;48.43;100052.19;4413911;32;19994;-73
2022/01/17 11:42:49;;;;;;;;;;;;;;;8.34;49.02;100066.41;4428456;32;20104;-72
2022/01/17 11:45:22;;;;;;;;;;;;;;;8.70;47.64;100065.69;4402056;32;19978;-72
2022/01/17 11:47:57;;;;;;;;;;;;;;;8.49;47.69;100066.00;4429606;32;20003;-73
2022/01/17 11:50:27;;;;;;;;;;;;;;;8.22;48.48;100051.44;4429236;32;19974;-72
2022/01/17 11:52:58;;;;;;;;;;;;;;;8.25;48.52;100051.53;4429358;32;20039;-72
2022/01/17 11:55:42;;;;;;;;;;;;;;;8.48;47.84;100054.78;4411938;32;20002;-73
2022/01/17 11:58:27;;;;;;;;;;;;;;;8.69;47.72;100077.72;4413990;32;19993;-72
2022/01/17 12:01:00;;;;;;;;;;;;;;;8.72;47.24;100046.84;4408169;32;19982;-72
2022/01/17 12:03:41;;;;;;;;;;;;;;;8.45;48.22;100033.19;4425314;32;19996;-72
2022/01/17 12:06:21;;;;;;;;;;;;;;;8.57;48.02;100013.75;4412826;32;19985;-72
2022/01/17 12:09:11;;;;;;;;;;;;;;;8.49;48.16;100024.72;4413225;32;20009;-72
2022/01/17 12:11:38;;;;;;;;;;;;;;;8.66;47.91;100002.81;4412559;32;20000;-72
2022/01/17 12:14:34;;;;;;;;;;;;;;;7.85;50.14;100009.13;4403549;32;20045;-73
2022/01/17 12:17:20;;;;;;;;;;;;;;;8.10;49.92;100012.41;4389453;32;20421;-72
2022/01/17 12:20:09;;;;;;;;;;;;;;;8.25;49.30;100011.97;4392604;32;20348;-71
2022/01/17 12:22:39;;;;;;;;;;;;;;;8.11;49.76;100016.75;4411507;32;20004;-73
2022/01/17 12:25:26;;;;;;;;;;;;;;;8.14;49.21;100011.69;4416209;32;19986;-72
2022/01/17 12:28:08;;;;;;;;;;;;;;;8.35;48.58;99983.91;4415451;32;20054;-72
2022/01/17 12:31:08;;;;;;;;;;;;;;;8.47;48.46;99982.53;4408697;32;19981;-72
2022/01/17 12:33:37;;;;;;;;;;;;;;;8.42;48.62;99971.19;4385742;32;19981;-71
2022/01/17 12:36:06;;;;;;;;;;;;;;;8.42;48.45;99948.84;4414694;32;20068;-72
2022/01/17 12:38:39;;;;;;;;;;;;;;;8.51;48.27;99949.09;4406246;32;19991;-71
2022/01/17 12:41:06;;;;;;;;;;;;;;;8.18;49.12;99951.62;4401435;32;20046;-72
2022/01/17 12:43:34;;;;;;;;;;;;;;;7.90;49.98;99958.56;4414330;32;20008;-73
2022/01/17 12:46:06;;;;;;;;;;;;;;;7.91;50.17;99952.63;4413338;32;20889;-74
2022/01/17 12:48:35;;;;;;;;;;;;;;;8.22;49.42;99962.91;4413904;32;19986;-75
2022/01/17 12:51:05;;;;;;;;;;;;;;;8.26;49.29;99960.44;4413297;32;20324;-72
2022/01/17 12:53:33;;;;;;;;;;;;;;;8.54;48.34;99950.88;4412092;32;19985;-75
2022/01/17 12:56:04;;;;;;;;;;;;;;;8.71;48.23;99957.38;4410735;32;19988;-73
2022/01/17 12:58:32;;;;;;;;;;;;;;;8.79;47.76;99979.06;4408497;32;20004;-73
2022/01/17 13:01:03;;;;;;;;;;;;;;;9.00;46.90;99962.37;4407326;32;20012;-75
2022/01/17 13:03:35;;;;;;;;;;;;;;;8.51;48.48;99966.28;4410444;32;19981;-72
2022/01/17 13:06:03;;;;;;;;;;;;;;;8.67;47.68;99947.78;4409083;32;19991;-72
2022/01/17 13:08:31;;;;;;;;;;;;;;;8.82;46.93;99945.59;4410590;32;20041;-72
2022/01/17 13:10:59;;;;;;;;;;;;;;;8.60;47.61;99943.31;4409464;32;19996;-71
2022/01/17 13:13:27;;;;;;;;;;;;;;;8.12;48.92;99936.00;4408292;32;19982;-74
2022/01/17 13:15:54;;;;;;;;;;;;;;;8.48;47.63;99940.41;4413346;32;20385;-72